sensor_id;sensor_type;location;lat;lon;timestamp;temperature;humidity
12408;DHT22;6268;48.188;17.134;2023-12-14T00:01:26;5.00;99.90
12408;DHT22;6268;48.188;17.134;2023-12-14T00:03:55;4.90;99.90
12408;DHT22;6268;48.188;17.134;2023-12-14T00:06:24;4.90;99.90
12408;DHT22;6268;48.188;17.134;2023-12-14T00:08:53;4.90;99.90
12408;DHT22;6268;48.188;17.134;2023-12-14T00:11:21;4.90;99.90
12408;DHT22;6268;48.188;17.134;2023-12-14T00:13:49;4.90;99.90
12408;DHT22;6268;48.188;17.134;2023-12-14T00:16:18;4.90;99.90
12408;DHT22;6268;48.188;17.134;2023-12-14T00:18:47;4.80;99.90
12408;DHT22;6268;48.188;17.134;2023-12-14T00:21:17;4.80;99.90
12408;DHT22;6268;48.188;17.134;2023-12-14T00:23:45;4.90;99.90
12408;DHT22;6268;48.188;17.134;2023-12-14T00:26:14;4.80;99.90
12408;DHT22;6268;48.188;17.134;2023-12-14T00:28:44;4.80;99.90
12408;DHT22;6268;48.188;17.134;2023-12-14T00:31:12;4.90;99.90
12408;DHT22;6268;48.188;17.134;2023-12-14T00:33:41;4.90;99.90
12408;DHT22;6268;48.188;17.134;2023-12-14T00:36:10;4.80;99.90
12408;DHT22;6268;48.188;17.134;2023-12-14T00:38:39;4.80;99.90
12408;DHT22;6268;48.188;17.134;2023-12-14T00:41:08;4.90;99.90
12408;DHT22;6268;48.188;17.134;2023-12-14T00:43:37;4.90;99.90
12408;DHT22;6268;48.188;17.134;2023-12-14T00:46:05;4.90;99.90
12408;DHT22;6268;48.188;17.134;2023-12-14T00:48:34;4.90;99.90
12408;DHT22;6268;48.188;17.134;2023-12-14T00:51:02;4.90;99.90
12408;DHT22;6268;48.188;17.134;2023-12-14T00:53:31;5.00;99.90
12408;DHT22;6268;48.188;17.134;2023-12-14T00:56:01;5.00;99.90
12408;DHT22;6268;48.188;17.134;2023-12-14T00:58:30;5.00;99.90
12408;DHT22;6268;48.188;17.134;2023-12-14T01:00:58;5.00;99.90
12408;DHT22;6268;48.188;17.134;2023-12-14T01:03:27;4.90;99.90
12408;DHT22;6268;48.188;17.134;2023-12-14T01:05:55;4.90;99.90
12408;DHT22;6268;48.188;17.134;2023-12-14T01:08:24;4.90;99.90
12408;DHT22;6268;48.188;17.134;2023-12-14T01:10:52;4.90;99.90
12408;DHT22;6268;48.188;17.134;2023-12-14T01:13:22;4.90;99.90
12408;DHT22;6268;48.188;17.134;2023-12-14T01:15:51;5.00;99.90
12408;DHT22;6268;48.188;17.134;2023-12-14T01:18:19;5.00;99.90
12408;DHT22;6268;48.188;17.134;2023-12-14T01:20:48;5.00;99.90
12408;DHT22;6268;48.188;17.134;2023-12-14T01:23:16;5.00;99.90
12408;DHT22;6268;48.188;17.134;2023-12-14T01:25:45;5.00;99.90
12408;DHT22;6268;48.188;17.134;2023-12-14T01:28:13;5.00;99.90
12408;DHT22;6268;48.188;17.134;2023-12-14T01:30:43;5.10;99.90
12408;DHT22;6268;48.188;17.134;2023-12-14T01:33:12;5.20;99.90
12408;DHT22;6268;48.188;17.134;2023-12-14T01:35:41;5.20;99.90
12408;DHT22;6268;48.188;17.134;2023-12-14T01:38:09;5.20;99.90
12408;DHT22;6268;48.188;17.134;2023-12-14T01:40:38;5.30;99.90
12408;DHT22;6268;48.188;17.134;2023-12-14T01:43:08;5.40;99.90
12408;DHT22;6268;48.188;17.134;2023-12-14T01:45:37;5.40;99.90
12408;DHT22;6268;48.188;17.134;2023-12-14T01:48:07;5.50;99.90
12408;DHT22;6268;48.188;17.134;2023-12-14T01:50:36;5.40;99.90
12408;DHT22;6268;48.188;17.134;2023-12-14T01:53:04;5.40;99.90
12408;DHT22;6268;48.188;17.134;2023-12-14T01:55:33;5.30;99.90
12408;DHT22;6268;48.188;17.134;2023-12-14T01:58:01;5.30;99.90
12408;DHT22;6268;48.188;17.134;2023-12-14T02:00:36;5.30;99.90
12408;DHT22;6268;48.188;17.134;2023-12-14T02:03:07;5.30;99.90
12408;DHT22;6268;48.188;17.134;2023-12-14T02:05:36;5.20;99.90
12408;DHT22;6268;48.188;17.134;2023-12-14T02:08:05;5.10;99.90
12408;DHT22;6268;48.188;17.134;2023-12-14T02:10:34;5.10;99.90
12408;DHT22;6268;48.188;17.134;2023-12-14T02:13:03;5.10;99.90
12408;DHT22;6268;48.188;17.134;2023-12-14T02:15:31;5.20;99.90
12408;DHT22;6268;48.188;17.134;2023-12-14T02:18:00;5.10;99.90
12408;DHT22;6268;48.188;17.134;2023-12-14T02:20:30;5.10;99.90
12408;DHT22;6268;48.188;17.134;2023-12-14T02:23:00;5.20;99.90
12408;DHT22;6268;48.188;17.134;2023-12-14T02:25:29;5.20;99.90
12408;DHT22;6268;48.188;17.134;2023-12-14T02:27:58;5.10;99.90
12408;DHT22;6268;48.188;17.134;2023-12-14T02:30:26;5.20;99.90
12408;DHT22;6268;48.188;17.134;2023-12-14T02:32:55;5.10;99.90
12408;DHT22;6268;48.188;17.134;2023-12-14T02:35:23;5.10;99.90
12408;DHT22;6268;48.188;17.134;2023-12-14T02:37:52;5.10;99.90
12408;DHT22;6268;48.188;17.134;2023-12-14T02:40:22;5.10;99.90
12408;DHT22;6268;48.188;17.134;2023-12-14T02:42:50;5.00;99.90
12408;DHT22;6268;48.188;17.134;2023-12-14T02:45:19;5.00;99.90
12408;DHT22;6268;48.188;17.134;2023-12-14T02:47:48;5.10;99.90
12408;DHT22;6268;48.188;17.134;2023-12-14T02:50:17;5.20;99.90
12408;DHT22;6268;48.188;17.134;2023-12-14T02:52:45;5.20;99.90
12408;DHT22;6268;48.188;17.134;2023-12-14T02:55:14;5.30;99.90
12408;DHT22;6268;48.188;17.134;2023-12-14T02:57:44;5.30;99.90
12408;DHT22;6268;48.188;17.134;2023-12-14T03:00:13;5.30;99.90
12408;DHT22;6268;48.188;17.134;2023-12-14T03:02:42;5.40;99.90
12408;DHT22;6268;48.188;17.134;2023-12-14T03:05:10;5.40;99.90
12408;DHT22;6268;48.188;17.134;2023-12-14T03:07:39;5.40;99.90
12408;DHT22;6268;48.188;17.134;2023-12-14T03:10:09;5.40;99.90
12408;DHT22;6268;48.188;17.134;2023-12-14T03:12:37;5.40;99.90
12408;DHT22;6268;48.188;17.134;2023-12-14T03:15:08;5.50;99.90
12408;DHT22;6268;48.188;17.134;2023-12-14T03:17:36;5.40;99.90
12408;DHT22;6268;48.188;17.134;2023-12-14T03:20:06;5.40;99.90
12408;DHT22;6268;48.188;17.134;2023-12-14T03:22:35;5.40;99.90
12408;DHT22;6268;48.188;17.134;2023-12-14T03:25:05;5.40;99.90
12408;DHT22;6268;48.188;17.134;2023-12-14T03:27:33;5.40;99.90
12408;DHT22;6268;48.188;17.134;2023-12-14T03:30:02;5.50;99.90
12408;DHT22;6268;48.188;17.134;2023-12-14T03:32:37;5.50;99.90
12408;DHT22;6268;48.188;17.134;2023-12-14T03:35:06;5.60;99.90
12408;DHT22;6268;48.188;17.134;2023-12-14T03:37:35;5.60;99.90
12408;DHT22;6268;48.188;17.134;2023-12-14T03:40:05;5.70;99.90
12408;DHT22;6268;48.188;17.134;2023-12-14T03:42:34;5.70;99.90
12408;DHT22;6268;48.188;17.134;2023-12-14T03:45:03;5.70;99.90
12408;DHT22;6268;48.188;17.134;2023-12-14T03:47:32;5.70;99.90
12408;DHT22;6268;48.188;17.134;2023-12-14T03:50:02;5.70;99.90
12408;DHT22;6268;48.188;17.134;2023-12-14T03:52:30;5.80;99.90
12408;DHT22;6268;48.188;17.134;2023-12-14T03:54:59;5.90;99.90
12408;DHT22;6268;48.188;17.134;2023-12-14T03:57:28;5.90;99.90
12408;DHT22;6268;48.188;17.134;2023-12-14T03:59:57;5.90;99.90
12408;DHT22;6268;48.188;17.134;2023-12-14T04:02:26;6.00;99.90
12408;DHT22;6268;48.188;17.134;2023-12-14T04:04:54;6.00;99.90
12408;DHT22;6268;48.188;17.134;2023-12-14T04:07:24;6.00;99.90
12408;DHT22;6268;48.188;17.134;2023-12-14T04:09:53;5.90;99.90
12408;DHT22;6268;48.188;17.134;2023-12-14T04:12:22;5.90;99.90
12408;DHT22;6268;48.188;17.134;2023-12-14T04:14:50;5.90;99.90
12408;DHT22;6268;48.188;17.134;2023-12-14T04:17:19;5.90;99.90
12408;DHT22;6268;48.188;17.134;2023-12-14T04:19:48;5.90;99.90
12408;DHT22;6268;48.188;17.134;2023-12-14T04:22:16;5.90;99.90
12408;DHT22;6268;48.188;17.134;2023-12-14T04:24:48;5.90;99.90
12408;DHT22;6268;48.188;17.134;2023-12-14T04:27:17;5.90;99.90
12408;DHT22;6268;48.188;17.134;2023-12-14T04:29:45;5.90;99.90
12408;DHT22;6268;48.188;17.134;2023-12-14T04:32:14;5.90;99.90
12408;DHT22;6268;48.188;17.134;2023-12-14T04:34:42;5.90;99.90
12408;DHT22;6268;48.188;17.134;2023-12-14T04:37:14;5.90;99.90
12408;DHT22;6268;48.188;17.134;2023-12-14T04:39:43;5.90;99.90
12408;DHT22;6268;48.188;17.134;2023-12-14T04:42:12;5.90;99.90
12408;DHT22;6268;48.188;17.134;2023-12-14T04:44:41;5.90;99.90
12408;DHT22;6268;48.188;17.134;2023-12-14T04:47:09;5.90;99.90
12408;DHT22;6268;48.188;17.134;2023-12-14T04:49:38;5.90;99.90
12408;DHT22;6268;48.188;17.134;2023-12-14T04:52:07;5.80;99.90
12408;DHT22;6268;48.188;17.134;2023-12-14T04:54:35;5.80;99.90
12408;DHT22;6268;48.188;17.134;2023-12-14T04:57:07;5.80;99.90
12408;DHT22;6268;48.188;17.134;2023-12-14T04:59:37;5.80;99.90
12408;DHT22;6268;48.188;17.134;2023-12-14T05:02:05;5.70;99.90
12408;DHT22;6268;48.188;17.134;2023-12-14T05:04:34;5.70;99.90
12408;DHT22;6268;48.188;17.134;2023-12-14T05:07:02;5.70;99.90
12408;DHT22;6268;48.188;17.134;2023-12-14T05:09:31;5.70;99.90
12408;DHT22;6268;48.188;17.134;2023-12-14T05:12:00;5.60;99.90
12408;DHT22;6268;48.188;17.134;2023-12-14T05:14:28;5.60;99.90
12408;DHT22;6268;48.188;17.134;2023-12-14T05:16:58;5.60;99.90
12408;DHT22;6268;48.188;17.134;2023-12-14T05:19:27;5.60;99.90
12408;DHT22;6268;48.188;17.134;2023-12-14T05:21:55;5.60;99.90
12408;DHT22;6268;48.188;17.134;2023-12-14T05:24:23;5.60;99.90
12408;DHT22;6268;48.188;17.134;2023-12-14T05:26:54;5.60;99.90
12408;DHT22;6268;48.188;17.134;2023-12-14T05:29:23;5.60;99.90
12408;DHT22;6268;48.188;17.134;2023-12-14T05:31:51;5.70;99.90
12408;DHT22;6268;48.188;17.134;2023-12-14T05:34:22;5.70;99.90
12408;DHT22;6268;48.188;17.134;2023-12-14T05:36:50;5.70;99.90
12408;DHT22;6268;48.188;17.134;2023-12-14T05:39:19;5.70;99.90
12408;DHT22;6268;48.188;17.134;2023-12-14T05:41:50;5.70;99.90
12408;DHT22;6268;48.188;17.134;2023-12-14T05:44:18;5.70;99.90
12408;DHT22;6268;48.188;17.134;2023-12-14T05:46:47;5.70;99.90
12408;DHT22;6268;48.188;17.134;2023-12-14T05:49:16;5.70;99.90
12408;DHT22;6268;48.188;17.134;2023-12-14T05:51:46;5.70;99.90
12408;DHT22;6268;48.188;17.134;2023-12-14T05:54:14;5.70;99.90
12408;DHT22;6268;48.188;17.134;2023-12-14T05:56:42;5.70;99.90
12408;DHT22;6268;48.188;17.134;2023-12-14T05:59:11;5.70;99.90
12408;DHT22;6268;48.188;17.134;2023-12-14T06:01:39;5.70;99.90
12408;DHT22;6268;48.188;17.134;2023-12-14T06:04:10;5.70;99.90
12408;DHT22;6268;48.188;17.134;2023-12-14T06:06:39;5.70;99.90
12408;DHT22;6268;48.188;17.134;2023-12-14T06:09:08;5.70;99.90
12408;DHT22;6268;48.188;17.134;2023-12-14T06:11:37;5.80;99.90
12408;DHT22;6268;48.188;17.134;2023-12-14T06:14:06;5.70;99.90
12408;DHT22;6268;48.188;17.134;2023-12-14T06:16:34;5.70;99.90
12408;DHT22;6268;48.188;17.134;2023-12-14T06:19:03;5.80;99.90
12408;DHT22;6268;48.188;17.134;2023-12-14T06:21:32;5.80;99.90
12408;DHT22;6268;48.188;17.134;2023-12-14T06:24:00;5.80;99.90
12408;DHT22;6268;48.188;17.134;2023-12-14T06:26:30;5.80;99.90
12408;DHT22;6268;48.188;17.134;2023-12-14T06:28:59;5.80;99.90
12408;DHT22;6268;48.188;17.134;2023-12-14T06:31:28;5.80;99.90
12408;DHT22;6268;48.188;17.134;2023-12-14T06:33:56;5.80;99.90
12408;DHT22;6268;48.188;17.134;2023-12-14T06:36:28;5.80;99.90
12408;DHT22;6268;48.188;17.134;2023-12-14T06:38:57;5.80;99.90
12408;DHT22;6268;48.188;17.134;2023-12-14T06:41:27;5.80;99.90
12408;DHT22;6268;48.188;17.134;2023-12-14T06:43:57;5.80;99.90
12408;DHT22;6268;48.188;17.134;2023-12-14T06:46:25;5.80;99.90
12408;DHT22;6268;48.188;17.134;2023-12-14T06:48:54;5.80;99.90
12408;DHT22;6268;48.188;17.134;2023-12-14T06:51:23;5.90;99.90
12408;DHT22;6268;48.188;17.134;2023-12-14T06:53:51;5.90;99.90
12408;DHT22;6268;48.188;17.134;2023-12-14T06:56:20;5.90;99.90
12408;DHT22;6268;48.188;17.134;2023-12-14T06:58:49;5.90;99.90
12408;DHT22;6268;48.188;17.134;2023-12-14T07:01:19;5.90;99.90
12408;DHT22;6268;48.188;17.134;2023-12-14T07:03:47;5.90;99.90
12408;DHT22;6268;48.188;17.134;2023-12-14T07:06:17;5.90;99.90
12408;DHT22;6268;48.188;17.134;2023-12-14T07:08:46;5.90;99.90
12408;DHT22;6268;48.188;17.134;2023-12-14T07:11:15;6.00;99.90
12408;DHT22;6268;48.188;17.134;2023-12-14T07:13:44;6.40;99.90
12408;DHT22;6268;48.188;17.134;2023-12-14T07:16:14;6.60;99.90
12408;DHT22;6268;48.188;17.134;2023-12-14T07:18:46;6.60;99.90
12408;DHT22;6268;48.188;17.134;2023-12-14T07:21:15;6.70;99.90
12408;DHT22;6268;48.188;17.134;2023-12-14T07:23:43;6.70;99.90
12408;DHT22;6268;48.188;17.134;2023-12-14T07:26:12;6.70;99.90
12408;DHT22;6268;48.188;17.134;2023-12-14T07:28:41;6.60;99.90
12408;DHT22;6268;48.188;17.134;2023-12-14T07:31:09;6.60;99.90
12408;DHT22;6268;48.188;17.134;2023-12-14T07:33:38;6.60;99.90
12408;DHT22;6268;48.188;17.134;2023-12-14T07:36:08;6.70;99.90
12408;DHT22;6268;48.188;17.134;2023-12-14T07:38:37;6.70;99.90
12408;DHT22;6268;48.188;17.134;2023-12-14T07:41:15;6.60;99.90
12408;DHT22;6268;48.188;17.134;2023-12-14T07:43:43;6.60;99.90
12408;DHT22;6268;48.188;17.134;2023-12-14T07:46:12;6.60;99.90
12408;DHT22;6268;48.188;17.134;2023-12-14T07:48:41;6.50;99.90
12408;DHT22;6268;48.188;17.134;2023-12-14T07:51:12;6.50;99.90
12408;DHT22;6268;48.188;17.134;2023-12-14T07:53:40;6.60;99.90
12408;DHT22;6268;48.188;17.134;2023-12-14T07:56:10;6.60;99.90
12408;DHT22;6268;48.188;17.134;2023-12-14T07:58:38;6.60;99.90
12408;DHT22;6268;48.188;17.134;2023-12-14T08:01:07;6.60;99.90
12408;DHT22;6268;48.188;17.134;2023-12-14T08:03:36;6.60;99.90
12408;DHT22;6268;48.188;17.134;2023-12-14T08:06:05;6.60;99.90
12408;DHT22;6268;48.188;17.134;2023-12-14T08:08:35;6.80;99.90
12408;DHT22;6268;48.188;17.134;2023-12-14T08:11:05;7.00;99.90
12408;DHT22;6268;48.188;17.134;2023-12-14T08:13:34;6.90;99.90
12408;DHT22;6268;48.188;17.134;2023-12-14T08:16:05;7.00;99.90
12408;DHT22;6268;48.188;17.134;2023-12-14T08:18:34;7.10;99.90
12408;DHT22;6268;48.188;17.134;2023-12-14T08:21:03;7.20;99.90
12408;DHT22;6268;48.188;17.134;2023-12-14T08:23:32;7.20;99.90
12408;DHT22;6268;48.188;17.134;2023-12-14T08:26:01;7.20;99.90
12408;DHT22;6268;48.188;17.134;2023-12-14T08:28:30;7.20;99.90
12408;DHT22;6268;48.188;17.134;2023-12-14T08:30:58;7.30;99.90
12408;DHT22;6268;48.188;17.134;2023-12-14T08:33:29;7.20;99.90
12408;DHT22;6268;48.188;17.134;2023-12-14T08:35:58;7.10;99.90
12408;DHT22;6268;48.188;17.134;2023-12-14T08:38:26;7.00;99.90
12408;DHT22;6268;48.188;17.134;2023-12-14T08:40:55;6.90;99.90
12408;DHT22;6268;48.188;17.134;2023-12-14T08:43:25;6.90;99.90
12408;DHT22;6268;48.188;17.134;2023-12-14T08:45:53;6.90;99.90
12408;DHT22;6268;48.188;17.134;2023-12-14T08:48:22;6.90;99.90
12408;DHT22;6268;48.188;17.134;2023-12-14T08:50:53;6.90;99.90
12408;DHT22;6268;48.188;17.134;2023-12-14T08:53:22;6.90;99.90
12408;DHT22;6268;48.188;17.134;2023-12-14T08:55:50;6.90;99.90
12408;DHT22;6268;48.188;17.134;2023-12-14T08:58:19;6.90;99.90
12408;DHT22;6268;48.188;17.134;2023-12-14T09:00:49;7.00;99.90
12408;DHT22;6268;48.188;17.134;2023-12-14T09:03:20;6.90;99.90
12408;DHT22;6268;48.188;17.134;2023-12-14T09:05:49;6.90;99.90
12408;DHT22;6268;48.188;17.134;2023-12-14T09:08:18;7.00;99.90
12408;DHT22;6268;48.188;17.134;2023-12-14T09:10:46;7.10;99.90
12408;DHT22;6268;48.188;17.134;2023-12-14T09:13:15;7.10;99.90
12408;DHT22;6268;48.188;17.134;2023-12-14T09:15:43;7.10;99.90
12408;DHT22;6268;48.188;17.134;2023-12-14T09:18:13;7.10;99.90
12408;DHT22;6268;48.188;17.134;2023-12-14T09:20:42;7.20;99.90
12408;DHT22;6268;48.188;17.134;2023-12-14T09:23:11;7.30;99.90
12408;DHT22;6268;48.188;17.134;2023-12-14T09:25:40;7.30;99.90
12408;DHT22;6268;48.188;17.134;2023-12-14T09:28:08;7.30;99.90
12408;DHT22;6268;48.188;17.134;2023-12-14T09:30:37;7.40;99.90
12408;DHT22;6268;48.188;17.134;2023-12-14T09:33:06;7.40;99.90
12408;DHT22;6268;48.188;17.134;2023-12-14T09:35:37;7.40;99.90
12408;DHT22;6268;48.188;17.134;2023-12-14T09:38:06;7.40;99.90
12408;DHT22;6268;48.188;17.134;2023-12-14T09:40:35;7.40;99.90
12408;DHT22;6268;48.188;17.134;2023-12-14T09:43:03;7.50;99.90
12408;DHT22;6268;48.188;17.134;2023-12-14T09:45:35;7.50;99.90
12408;DHT22;6268;48.188;17.134;2023-12-14T09:48:05;7.50;99.90
12408;DHT22;6268;48.188;17.134;2023-12-14T09:50:34;7.50;99.90
12408;DHT22;6268;48.188;17.134;2023-12-14T09:53:04;7.50;99.90
12408;DHT22;6268;48.188;17.134;2023-12-14T09:55:33;7.50;99.90
12408;DHT22;6268;48.188;17.134;2023-12-14T09:58:01;7.50;99.90
12408;DHT22;6268;48.188;17.134;2023-12-14T10:00:34;7.50;99.90
12408;DHT22;6268;48.188;17.134;2023-12-14T10:03:24;7.60;99.90
12408;DHT22;6268;48.188;17.134;2023-12-14T10:05:55;7.60;99.90
12408;DHT22;6268;48.188;17.134;2023-12-14T10:08:26;7.60;99.90
12408;DHT22;6268;48.188;17.134;2023-12-14T10:10:55;7.60;99.90
12408;DHT22;6268;48.188;17.134;2023-12-14T10:13:37;7.60;99.90
12408;DHT22;6268;48.188;17.134;2023-12-14T10:16:07;7.70;99.90
12408;DHT22;6268;48.188;17.134;2023-12-14T10:18:35;7.80;99.90
12408;DHT22;6268;48.188;17.134;2023-12-14T10:21:06;7.80;99.90
12408;DHT22;6268;48.188;17.134;2023-12-14T10:23:37;7.80;99.90
12408;DHT22;6268;48.188;17.134;2023-12-14T10:26:06;8.00;99.90
12408;DHT22;6268;48.188;17.134;2023-12-14T10:28:34;8.00;99.90
12408;DHT22;6268;48.188;17.134;2023-12-14T10:31:03;8.30;99.90
12408;DHT22;6268;48.188;17.134;2023-12-14T10:33:32;8.40;99.90
12408;DHT22;6268;48.188;17.134;2023-12-14T10:36:04;8.50;99.90
12408;DHT22;6268;48.188;17.134;2023-12-14T10:38:34;8.70;99.90
12408;DHT22;6268;48.188;17.134;2023-12-14T10:41:07;8.80;99.90
12408;DHT22;6268;48.188;17.134;2023-12-14T10:43:37;9.00;99.90
12408;DHT22;6268;48.188;17.134;2023-12-14T10:46:16;9.30;99.90
12408;DHT22;6268;48.188;17.134;2023-12-14T10:48:45;9.50;99.90
12408;DHT22;6268;48.188;17.134;2023-12-14T10:51:17;9.70;99.90
12408;DHT22;6268;48.188;17.134;2023-12-14T10:53:47;9.90;99.90
12408;DHT22;6268;48.188;17.134;2023-12-14T10:56:18;10.00;99.90
12408;DHT22;6268;48.188;17.134;2023-12-14T10:58:48;10.10;99.90
12408;DHT22;6268;48.188;17.134;2023-12-14T11:01:20;10.10;99.90
12408;DHT22;6268;48.188;17.134;2023-12-14T11:03:54;10.00;99.90
12408;DHT22;6268;48.188;17.134;2023-12-14T11:06:29;9.90;99.90
12408;DHT22;6268;48.188;17.134;2023-12-14T11:09:00;10.00;99.90
12408;DHT22;6268;48.188;17.134;2023-12-14T11:11:42;9.90;99.90
12408;DHT22;6268;48.188;17.134;2023-12-14T11:14:12;9.80;99.90
12408;DHT22;6268;48.188;17.134;2023-12-14T11:16:41;9.70;99.90
12408;DHT22;6268;48.188;17.134;2023-12-14T11:19:25;9.70;99.90
12408;DHT22;6268;48.188;17.134;2023-12-14T11:22:23;9.90;99.90
12408;DHT22;6268;48.188;17.134;2023-12-14T11:24:53;10.10;99.90
12408;DHT22;6268;48.188;17.134;2023-12-14T11:27:30;10.40;99.90
12408;DHT22;6268;48.188;17.134;2023-12-14T11:29:59;10.50;99.90
12408;DHT22;6268;48.188;17.134;2023-12-14T11:32:28;10.70;99.90
12408;DHT22;6268;48.188;17.134;2023-12-14T11:34:57;10.80;99.90
12408;DHT22;6268;48.188;17.134;2023-12-14T11:37:25;10.70;99.90
12408;DHT22;6268;48.188;17.134;2023-12-14T11:39:55;10.50;99.90
12408;DHT22;6268;48.188;17.134;2023-12-14T11:42:23;10.60;99.90
12408;DHT22;6268;48.188;17.134;2023-12-14T11:44:54;10.60;99.90
12408;DHT22;6268;48.188;17.134;2023-12-14T11:47:22;10.50;99.90
12408;DHT22;6268;48.188;17.134;2023-12-14T11:49:51;10.40;99.90
12408;DHT22;6268;48.188;17.134;2023-12-14T11:52:19;10.40;99.90
12408;DHT22;6268;48.188;17.134;2023-12-14T11:54:49;10.40;99.90
12408;DHT22;6268;48.188;17.134;2023-12-14T11:57:18;10.20;99.90
12408;DHT22;6268;48.188;17.134;2023-12-14T11:59:46;10.20;99.90
12408;DHT22;6268;48.188;17.134;2023-12-14T12:02:23;10.20;99.90
12408;DHT22;6268;48.188;17.134;2023-12-14T12:04:53;10.30;99.90
12408;DHT22;6268;48.188;17.134;2023-12-14T12:07:21;10.30;99.90
12408;DHT22;6268;48.188;17.134;2023-12-14T12:09:50;10.30;99.90
12408;DHT22;6268;48.188;17.134;2023-12-14T12:12:18;10.20;99.90
12408;DHT22;6268;48.188;17.134;2023-12-14T12:14:47;10.10;99.90
12408;DHT22;6268;48.188;17.134;2023-12-14T12:17:20;10.20;99.90
12408;DHT22;6268;48.188;17.134;2023-12-14T12:19:49;10.10;99.90
12408;DHT22;6268;48.188;17.134;2023-12-14T12:22:18;10.00;99.90
12408;DHT22;6268;48.188;17.134;2023-12-14T12:24:46;9.90;99.90
12408;DHT22;6268;48.188;17.134;2023-12-14T12:27:24;9.70;99.90
12408;DHT22;6268;48.188;17.134;2023-12-14T12:29:52;9.70;99.90
12408;DHT22;6268;48.188;17.134;2023-12-14T12:32:23;9.70;99.90
12408;DHT22;6268;48.188;17.134;2023-12-14T12:34:52;9.70;99.90
12408;DHT22;6268;48.188;17.134;2023-12-14T12:37:20;9.60;99.90
12408;DHT22;6268;48.188;17.134;2023-12-14T12:39:49;9.60;99.90
12408;DHT22;6268;48.188;17.134;2023-12-14T12:42:18;9.60;99.90
12408;DHT22;6268;48.188;17.134;2023-12-14T12:44:51;9.50;99.90
12408;DHT22;6268;48.188;17.134;2023-12-14T12:47:19;9.50;99.90
12408;DHT22;6268;48.188;17.134;2023-12-14T12:49:49;9.50;99.90
12408;DHT22;6268;48.188;17.134;2023-12-14T12:52:18;9.40;99.90
12408;DHT22;6268;48.188;17.134;2023-12-14T12:54:46;9.30;99.90
12408;DHT22;6268;48.188;17.134;2023-12-14T12:57:15;9.20;99.90
12408;DHT22;6268;48.188;17.134;2023-12-14T12:59:44;9.20;99.90
12408;DHT22;6268;48.188;17.134;2023-12-14T13:02:13;9.10;99.90
12408;DHT22;6268;48.188;17.134;2023-12-14T13:04:42;9.00;99.90
12408;DHT22;6268;48.188;17.134;2023-12-14T13:07:12;9.00;99.90
12408;DHT22;6268;48.188;17.134;2023-12-14T13:09:40;8.80;99.90
12408;DHT22;6268;48.188;17.134;2023-12-14T13:12:08;8.90;99.90
12408;DHT22;6268;48.188;17.134;2023-12-14T13:14:37;8.80;99.90
12408;DHT22;6268;48.188;17.134;2023-12-14T13:17:05;8.80;99.90
12408;DHT22;6268;48.188;17.134;2023-12-14T13:19:34;8.70;99.90
12408;DHT22;6268;48.188;17.134;2023-12-14T13:22:03;8.60;99.90
12408;DHT22;6268;48.188;17.134;2023-12-14T13:24:33;8.60;99.90
12408;DHT22;6268;48.188;17.134;2023-12-14T13:27:01;8.50;99.90
12408;DHT22;6268;48.188;17.134;2023-12-14T13:29:31;8.40;99.90
12408;DHT22;6268;48.188;17.134;2023-12-14T13:32:01;8.40;99.90
12408;DHT22;6268;48.188;17.134;2023-12-14T13:34:30;8.40;99.90
12408;DHT22;6268;48.188;17.134;2023-12-14T13:37:02;8.50;99.90
12408;DHT22;6268;48.188;17.134;2023-12-14T13:39:34;8.50;99.90
12408;DHT22;6268;48.188;17.134;2023-12-14T13:42:05;8.40;99.90
12408;DHT22;6268;48.188;17.134;2023-12-14T13:44:34;8.50;99.90
12408;DHT22;6268;48.188;17.134;2023-12-14T13:47:03;8.40;99.90
12408;DHT22;6268;48.188;17.134;2023-12-14T13:49:32;8.40;99.90
12408;DHT22;6268;48.188;17.134;2023-12-14T13:52:01;8.30;99.90
12408;DHT22;6268;48.188;17.134;2023-12-14T13:54:30;8.30;99.90
12408;DHT22;6268;48.188;17.134;2023-12-14T13:57:00;8.30;99.90
12408;DHT22;6268;48.188;17.134;2023-12-14T13:59:28;8.30;99.90
12408;DHT22;6268;48.188;17.134;2023-12-14T14:01:57;8.20;99.90
12408;DHT22;6268;48.188;17.134;2023-12-14T14:04:26;8.30;99.90
12408;DHT22;6268;48.188;17.134;2023-12-14T14:06:54;8.30;99.90
12408;DHT22;6268;48.188;17.134;2023-12-14T14:09:23;8.20;99.90
12408;DHT22;6268;48.188;17.134;2023-12-14T14:11:52;8.20;99.90
12408;DHT22;6268;48.188;17.134;2023-12-14T14:14:25;8.20;99.90
12408;DHT22;6268;48.188;17.134;2023-12-14T14:16:54;8.30;99.90
12408;DHT22;6268;48.188;17.134;2023-12-14T14:19:22;8.30;99.90
12408;DHT22;6268;48.188;17.134;2023-12-14T14:21:51;8.40;99.90
12408;DHT22;6268;48.188;17.134;2023-12-14T14:24:20;8.30;99.90
12408;DHT22;6268;48.188;17.134;2023-12-14T14:26:48;8.50;99.90
12408;DHT22;6268;48.188;17.134;2023-12-14T14:29:17;8.40;99.90
12408;DHT22;6268;48.188;17.134;2023-12-14T14:31:47;8.40;99.90
12408;DHT22;6268;48.188;17.134;2023-12-14T14:34:16;8.40;99.90
12408;DHT22;6268;48.188;17.134;2023-12-14T14:36:46;8.50;99.90
12408;DHT22;6268;48.188;17.134;2023-12-14T14:39:14;8.50;99.90
12408;DHT22;6268;48.188;17.134;2023-12-14T14:41:45;8.50;99.90
12408;DHT22;6268;48.188;17.134;2023-12-14T14:44:14;8.60;99.90
12408;DHT22;6268;48.188;17.134;2023-12-14T14:46:43;8.60;99.90
12408;DHT22;6268;48.188;17.134;2023-12-14T14:49:13;8.60;99.90
12408;DHT22;6268;48.188;17.134;2023-12-14T14:51:41;8.60;99.90
12408;DHT22;6268;48.188;17.134;2023-12-14T14:54:10;8.60;99.90
12408;DHT22;6268;48.188;17.134;2023-12-14T14:56:40;8.60;99.90
12408;DHT22;6268;48.188;17.134;2023-12-14T14:59:08;8.60;99.90
12408;DHT22;6268;48.188;17.134;2023-12-14T15:01:38;8.60;99.90
12408;DHT22;6268;48.188;17.134;2023-12-14T15:04:07;8.50;99.90
12408;DHT22;6268;48.188;17.134;2023-12-14T15:06:37;8.50;99.90
12408;DHT22;6268;48.188;17.134;2023-12-14T15:09:06;8.50;99.90
12408;DHT22;6268;48.188;17.134;2023-12-14T15:11:36;8.50;99.90
12408;DHT22;6268;48.188;17.134;2023-12-14T15:14:04;8.50;99.90
12408;DHT22;6268;48.188;17.134;2023-12-14T15:16:33;8.40;99.90
12408;DHT22;6268;48.188;17.134;2023-12-14T15:19:03;8.40;99.90
12408;DHT22;6268;48.188;17.134;2023-12-14T15:21:31;8.40;99.90
12408;DHT22;6268;48.188;17.134;2023-12-14T15:24:01;8.40;99.90
12408;DHT22;6268;48.188;17.134;2023-12-14T15:26:30;8.40;99.90
12408;DHT22;6268;48.188;17.134;2023-12-14T15:29:00;8.50;99.90
12408;DHT22;6268;48.188;17.134;2023-12-14T15:31:28;8.50;99.90
12408;DHT22;6268;48.188;17.134;2023-12-14T15:33:57;8.40;99.90
12408;DHT22;6268;48.188;17.134;2023-12-14T15:36:25;8.40;99.90
12408;DHT22;6268;48.188;17.134;2023-12-14T15:38:54;8.40;99.90
12408;DHT22;6268;48.188;17.134;2023-12-14T15:41:24;8.30;99.90
12408;DHT22;6268;48.188;17.134;2023-12-14T15:43:52;8.40;99.90
12408;DHT22;6268;48.188;17.134;2023-12-14T15:46:21;8.40;99.90
12408;DHT22;6268;48.188;17.134;2023-12-14T15:48:49;8.60;99.90
12408;DHT22;6268;48.188;17.134;2023-12-14T15:51:18;8.60;99.90
12408;DHT22;6268;48.188;17.134;2023-12-14T15:53:46;8.60;99.90
12408;DHT22;6268;48.188;17.134;2023-12-14T15:56:16;8.50;99.90
12408;DHT22;6268;48.188;17.134;2023-12-14T15:58:46;8.50;99.90